Time,TemperatureF,DewpointF,PressureIn,WindDirection,WindDirectionDegrees,WindSpeedMPH,WindSpeedGustMPH,Humidity,HourlyPrecipIn,Conditions,Clouds,dailyrainin,SoftwareType,DateUTC
2013-08-07 00:04:00,73.0,68.2,29.84,ENE,68,0.0,0.0,85,0.00,,,0.00,WUHU216HW,2013-08-07 04:04:00,
2013-08-07 00:09:00,72.8,68.0,29.84,ENE,68,0.0,0.0,85,0.00,,,0.00,WUHU216HW,2013-08-07 04:09:00,
2013-08-07 00:14:00,72.6,67.9,29.84,ENE,68,0.0,0.0,85,0.00,,,0.00,WUHU216HW,2013-08-07 04:14:00,
2013-08-07 00:19:00,72.6,68.2,29.84,ENE,68,0.0,0.0,86,0.00,,,0.00,WUHU216HW,2013-08-07 04:19:00,
2013-08-07 00:24:00,72.5,68.0,29.84,ENE,68,0.0,0.0,86,0.00,,,0.00,WUHU216HW,2013-08-07 04:24:00,
2013-08-07 00:29:00,72.5,68.0,29.84,ENE,68,0.0,0.0,86,0.00,,,0.00,WUHU216HW,2013-08-07 04:29:00,
2013-08-07 00:34:00,72.3,67.8,29.84,ENE,68,0.0,0.0,86,0.00,,,0.00,WUHU216HW,2013-08-07 04:34:00,
2013-08-07 00:39:00,72.3,67.8,29.84,ENE,68,0.0,0.0,86,0.00,,,0.00,WUHU216HW,2013-08-07 04:39:00,
2013-08-07 00:44:00,72.3,67.8,29.84,ENE,68,0.0,0.0,86,0.00,,,0.00,WUHU216HW,2013-08-07 04:44:00,
2013-08-07 00:49:00,72.1,67.7,29.84,ENE,68,0.0,0.0,86,0.00,,,0.00,WUHU216HW,2013-08-07 04:49:00,
2013-08-07 00:54:00,72.1,67.7,29.84,ENE,68,0.0,0.0,86,0.00,,,0.00,WUHU216HW,2013-08-07 04:54:00,
2013-08-07 00:59:00,71.9,67.5,29.84,ENE,68,0.0,0.0,86,0.00,,,0.00,WUHU216HW,2013-08-07 04:59:00,
2013-08-07 01:04:00,71.7,67.3,29.84,ENE,68,0.0,0.0,86,0.00,,,0.00,WUHU216HW,2013-08-07 05:04:00,
2013-08-07 01:09:00,71.7,67.3,29.85,ENE,68,0.0,0.0,86,0.00,,,0.00,WUHU216HW,2013-08-07 05:09:00,
2013-08-07 01:14:00,71.6,67.1,29.85,ENE,68,0.0,0.0,86,0.00,,,0.00,WUHU216HW,2013-08-07 05:14:00,
2013-08-07 01:19:00,71.4,66.9,29.84,ENE,68,0.0,0.0,86,0.00,,,0.00,WUHU216HW,2013-08-07 05:19:00,
2013-08-07 01:24:00,71.4,66.9,29.85,ENE,68,0.0,0.0,86,0.00,,,0.00,WUHU216HW,2013-08-07 05:24:00,
2013-08-07 01:29:00,71.2,66.8,29.84,ENE,68,0.0,0.0,86,0.00,,,0.00,WUHU216HW,2013-08-07 05:29:00,
2013-08-07 01:34:00,71.2,66.8,29.84,ENE,68,0.0,0.0,86,0.00,,,0.00,WUHU216HW,2013-08-07 05:34:00,
2013-08-07 01:39:00,71.0,66.8,29.84,ENE,68,0.0,0.0,86,0.00,,,0.00,WUHU216HW,2013-08-07 05:39:00,
2013-08-07 01:44:00,70.8,66.4,29.84,ENE,68,0.0,0.0,86,0.00,,,0.00,WUHU216HW,2013-08-07 05:44:00,
2013-08-07 01:49:00,70.7,66.2,29.84,ENE,68,0.0,0.0,86,0.00,,,0.00,WUHU216HW,2013-08-07 05:49:00,
2013-08-07 01:54:00,70.7,66.2,29.84,ENE,68,0.0,0.0,86,0.00,,,0.00,WUHU216HW,2013-08-07 05:54:00,
2013-08-07 01:59:00,70.5,66.0,29.84,ENE,68,0.0,0.0,86,0.00,,,0.00,WUHU216HW,2013-08-07 05:59:00,
2013-08-07 02:04:00,70.5,66.4,29.84,ENE,68,0.0,0.0,87,0.00,,,0.00,WUHU216HW,2013-08-07 06:04:00,
2013-08-07 02:09:00,70.3,65.9,29.84,ENE,68,0.0,0.0,86,0.00,,,0.00,WUHU216HW,2013-08-07 06:09:00,
2013-08-07 02:14:00,70.3,65.9,29.84,ENE,68,0.0,0.0,86,0.00,,,0.00,WUHU216HW,2013-08-07 06:14:00,
2013-08-07 02:19:00,70.3,65.9,29.85,ENE,68,0.0,0.0,86,0.00,,,0.00,WUHU216HW,2013-08-07 06:19:00,
2013-08-07 02:24:00,70.3,65.9,29.84,ENE,68,0.0,0.0,86,0.00,,,0.00,WUHU216HW,2013-08-07 06:24:00,
2013-08-07 02:29:00,70.1,65.7,29.84,ENE,68,0.0,0.0,86,0.00,,,0.00,WUHU216HW,2013-08-07 06:29:00,
2013-08-07 02:34:00,69.9,65.5,29.84,ENE,68,0.0,0.0,86,0.00,,,0.00,WUHU216HW,2013-08-07 06:34:00,
2013-08-07 02:39:00,69.9,65.5,29.84,ENE,68,0.0,0.0,86,0.00,,,0.00,WUHU216HW,2013-08-07 06:39:00,
2013-08-07 02:44:00,69.9,65.5,29.84,ENE,68,0.0,0.0,86,0.00,,,0.00,WUHU216HW,2013-08-07 06:44:00,
2013-08-07 02:49:00,69.8,65.3,29.84,ENE,68,0.0,0.0,86,0.00,,,0.00,WUHU216HW,2013-08-07 06:49:00,
2013-08-07 02:54:00,69.6,65.5,29.83,ENE,68,0.0,0.0,87,0.00,,,0.00,WUHU216HW,2013-08-07 06:54:00,
2013-08-07 02:59:00,69.6,65.5,29.83,ENE,68,0.0,0.0,87,0.00,,,0.00,WUHU216HW,2013-08-07 06:59:00,
2013-08-07 03:04:00,69.6,65.5,29.83,ENE,68,0.0,0.0,87,0.00,,,0.00,WUHU216HW,2013-08-07 07:04:00,
2013-08-07 03:09:00,69.4,65.3,29.83,ENE,68,0.0,0.0,87,0.00,,,0.00,WUHU216HW,2013-08-07 07:09:00,
2013-08-07 03:14:00,69.4,65.3,29.82,ENE,68,0.0,0.0,87,0.00,,,0.00,WUHU216HW,2013-08-07 07:14:00,
2013-08-07 03:19:00,69.4,65.3,29.82,ENE,68,0.0,0.0,87,0.00,,,0.00,WUHU216HW,2013-08-07 07:19:00,
2013-08-07 03:25:00,69.4,65.3,29.82,ENE,68,0.0,0.0,87,0.00,,,0.00,WUHU216HW,2013-08-07 07:25:00,
2013-08-07 03:30:00,69.4,65.3,29.82,ENE,68,0.0,0.0,87,0.00,,,0.00,WUHU216HW,2013-08-07 07:30:00,
2013-08-07 03:35:00,69.4,65.3,29.83,ENE,68,0.0,0.0,87,0.00,,,0.00,WUHU216HW,2013-08-07 07:35:00,
2013-08-07 03:40:00,69.4,65.3,29.82,ENE,68,0.0,0.0,87,0.00,,,0.00,WUHU216HW,2013-08-07 07:40:00,
2013-08-07 03:45:00,69.6,65.5,29.82,ENE,68,0.0,0.0,87,0.00,,,0.00,WUHU216HW,2013-08-07 07:45:00,
2013-08-07 03:50:00,69.6,65.8,29.82,ENE,68,0.0,0.0,88,0.00,,,0.00,WUHU216HW,2013-08-07 07:50:00,
2013-08-07 03:55:00,69.6,65.8,29.82,ENE,68,0.0,0.0,88,0.00,,,0.00,WUHU216HW,2013-08-07 07:55:00,
2013-08-07 04:00:00,69.6,65.8,29.82,ENE,68,0.0,0.0,88,0.00,,,0.00,WUHU216HW,2013-08-07 08:00:00,
2013-08-07 04:05:00,69.6,65.8,29.82,ENE,68,0.0,0.0,88,0.00,,,0.00,WUHU216HW,2013-08-07 08:05:00,
2013-08-07 04:10:00,69.6,65.8,29.82,ENE,68,0.0,0.0,88,0.00,,,0.00,WUHU216HW,2013-08-07 08:10:00,
2013-08-07 04:15:00,69.6,65.8,29.82,ENE,68,0.0,0.0,88,0.00,,,0.00,WUHU216HW,2013-08-07 08:15:00,
2013-08-07 04:20:00,69.8,66.0,29.82,ENE,68,0.0,0.0,88,0.00,,,0.00,WUHU216HW,2013-08-07 08:20:00,
2013-08-07 04:25:00,69.8,66.0,29.82,ENE,68,0.0,0.0,88,0.00,,,0.00,WUHU216HW,2013-08-07 08:25:00,
2013-08-07 04:30:00,69.9,66.2,29.81,ENE,68,0.0,0.0,88,0.00,,,0.00,WUHU216HW,2013-08-07 08:30:00,
2013-08-07 04:35:00,69.9,66.2,29.81,ENE,68,0.0,0.0,88,0.00,,,0.00,WUHU216HW,2013-08-07 08:35:00,
2013-08-07 04:40:00,69.9,66.2,29.81,ENE,68,0.0,0.0,88,0.00,,,0.00,WUHU216HW,2013-08-07 08:40:00,
2013-08-07 04:45:00,70.1,66.4,29.81,ENE,68,0.0,0.0,88,0.00,,,0.00,WUHU216HW,2013-08-07 08:45:00,
2013-08-07 04:50:00,70.3,66.9,29.81,ENE,68,0.0,0.0,89,0.00,,,0.00,WUHU216HW,2013-08-07 08:50:00,
2013-08-07 04:55:00,70.3,66.9,29.81,ENE,68,0.0,0.0,89,0.00,,,0.00,WUHU216HW,2013-08-07 08:55:00,
2013-08-07 05:00:00,70.5,67.1,29.81,ENE,68,0.0,0.0,89,0.00,,,0.00,WUHU216HW,2013-08-07 09:00:00,
2013-08-07 05:05:00,70.5,67.1,29.81,ENE,68,0.0,0.0,89,0.00,,,0.00,WUHU216HW,2013-08-07 09:05:00,
2013-08-07 05:10:00,70.7,67.2,29.82,NE,45,0.0,0.0,89,0.00,,,0.00,WUHU216HW,2013-08-07 09:10:00,
2013-08-07 05:15:00,70.7,67.2,29.82,ENE,68,0.0,0.0,89,0.00,,,0.00,WUHU216HW,2013-08-07 09:15:00,
2013-08-07 05:20:00,70.8,67.4,29.81,ENE,68,0.0,0.0,89,0.00,,,0.00,WUHU216HW,2013-08-07 09:20:00,
2013-08-07 05:25:00,70.8,67.4,29.81,ENE,68,0.0,0.0,89,0.00,,,0.00,WUHU216HW,2013-08-07 09:25:00,
2013-08-07 05:30:00,70.8,67.4,29.81,ENE,68,0.0,0.0,89,0.00,,,0.00,WUHU216HW,2013-08-07 09:30:00,
2013-08-07 05:35:00,70.8,67.4,29.81,ENE,68,0.0,0.0,89,0.00,,,0.00,WUHU216HW,2013-08-07 09:35:00,
2013-08-07 05:40:00,71.2,67.6,29.81,ENE,68,0.0,0.0,89,0.00,,,0.00,WUHU216HW,2013-08-07 09:40:00,
2013-08-07 05:45:00,71.2,67.8,29.81,ENE,68,0.0,0.0,89,0.00,,,0.00,WUHU216HW,2013-08-07 09:45:00,
2013-08-07 05:50:00,71.2,67.8,29.81,ENE,68,0.0,0.0,89,0.00,,,0.00,WUHU216HW,2013-08-07 09:50:00,
2013-08-07 05:55:00,71.2,67.8,29.82,ENE,68,0.0,0.0,89,0.00,,,0.00,WUHU216HW,2013-08-07 09:55:00,
2013-08-07 06:00:00,71.2,67.8,29.82,ENE,68,0.0,0.0,89,0.00,,,0.00,WUHU216HW,2013-08-07 10:00:00,
2013-08-07 06:05:00,71.2,67.8,29.82,ENE,68,0.0,0.0,89,0.00,,,0.00,WUHU216HW,2013-08-07 10:05:00,
2013-08-07 06:10:00,71.2,67.8,29.82,ENE,68,0.0,0.0,89,0.00,,,0.00,WUHU216HW,2013-08-07 10:10:00,
2013-08-07 06:15:00,71.2,67.8,29.82,ENE,68,0.0,0.0,89,0.00,,,0.00,WUHU216HW,2013-08-07 10:15:00,
2013-08-07 06:20:00,71.2,67.8,29.81,ENE,68,0.0,0.0,89,0.00,,,0.00,WUHU216HW,2013-08-07 10:20:00,
2013-08-07 06:25:00,71.2,68.1,29.82,ENE,68,0.0,0.0,89,0.00,,,0.00,WUHU216HW,2013-08-07 10:25:00,
2013-08-07 06:30:00,71.2,68.1,29.82,ENE,68,0.0,0.0,90,0.00,,,0.00,WUHU216HW,2013-08-07 10:30:00,
2013-08-07 06:35:00,71.4,68.3,29.82,ENE,68,0.0,0.0,90,0.00,,,0.00,WUHU216HW,2013-08-07 10:35:00,
2013-08-07 06:40:00,71.4,68.3,29.82,ENE,68,0.0,0.0,90,0.00,,,0.00,WUHU216HW,2013-08-07 10:40:00,
2013-08-07 06:45:00,71.4,68.3,29.81,ENE,68,0.0,0.0,90,0.00,,,0.00,WUHU216HW,2013-08-07 10:45:00,
2013-08-07 06:50:00,71.4,68.3,29.82,ENE,68,0.0,0.0,90,0.00,,,0.00,WUHU216HW,2013-08-07 10:50:00,
2013-08-07 06:55:00,71.4,68.3,29.82,ENE,68,0.0,0.0,90,0.00,,,0.00,WUHU216HW,2013-08-07 10:55:00,
2013-08-07 07:00:00,71.4,68.3,29.83,ENE,68,0.0,0.0,90,0.00,,,0.00,WUHU216HW,2013-08-07 11:00:00,
2013-08-07 07:05:00,71.6,68.5,29.83,ENE,68,0.0,0.0,90,0.00,,,0.00,WUHU216HW,2013-08-07 11:05:00,
2013-08-07 07:10:00,71.7,68.7,29.83,ENE,68,0.0,0.0,90,0.00,,,0.00,WUHU216HW,2013-08-07 11:10:00,
2013-08-07 07:15:00,71.6,68.5,29.83,ENE,68,0.0,0.0,90,0.00,,,0.00,WUHU216HW,2013-08-07 11:15:00,
2013-08-07 07:20:00,71.6,68.5,29.82,ENE,68,0.0,0.0,90,0.00,,,0.00,WUHU216HW,2013-08-07 11:20:00,
2013-08-07 07:25:00,71.7,68.7,29.82,ENE,68,0.0,0.0,90,0.00,,,0.00,WUHU216HW,2013-08-07 11:25:00,
2013-08-07 07:30:00,71.7,68.7,29.82,ENE,68,0.0,0.0,90,0.00,,,0.00,WUHU216HW,2013-08-07 11:30:00,
2013-08-07 07:35:00,71.7,68.7,29.82,ENE,68,0.0,0.0,90,0.00,,,0.00,WUHU216HW,2013-08-07 11:35:00,
2013-08-07 07:40:00,71.9,68.9,29.82,ENE,68,0.0,0.0,90,0.00,,,0.00,WUHU216HW,2013-08-07 11:40:00,
2013-08-07 07:45:00,71.9,68.9,29.82,ENE,68,0.0,0.0,90,0.00,,,0.00,WUHU216HW,2013-08-07 11:45:00,
2013-08-07 07:50:00,71.9,68.9,29.81,ENE,68,0.0,0.0,90,0.00,,,0.00,WUHU216HW,2013-08-07 11:50:00,
2013-08-07 07:55:00,72.1,69.0,29.81,ENE,68,0.0,0.0,90,0.00,,,0.00,WUHU216HW,2013-08-07 11:55:00,
2013-08-07 08:00:00,72.1,69.0,29.81,ENE,68,0.0,0.0,90,0.00,,,0.00,WUHU216HW,2013-08-07 12:00:00,
2013-08-07 08:05:00,72.3,69.2,29.82,ENE,68,0.0,0.0,90,0.00,,,0.00,WUHU216HW,2013-08-07 12:05:00,
2013-08-07 08:10:00,72.3,69.2,29.82,ENE,68,0.0,0.0,90,0.00,,,0.00,WUHU216HW,2013-08-07 12:10:00,
2013-08-07 08:15:00,72.3,69.2,29.82,ENE,68,0.0,0.0,90,0.00,,,0.00,WUHU216HW,2013-08-07 12:15:00,
2013-08-07 08:20:00,72.5,69.4,29.83,ENE,68,0.0,0.0,90,0.00,,,0.00,WUHU216HW,2013-08-07 12:20:00,
2013-08-07 08:25:00,72.5,69.4,29.82,ENE,68,0.0,0.0,90,0.00,,,0.00,WUHU216HW,2013-08-07 12:25:00,
2013-08-07 08:30:00,72.6,69.6,29.82,ENE,68,0.0,0.0,90,0.00,,,0.00,WUHU216HW,2013-08-07 12:30:00,
2013-08-07 08:35:00,72.6,69.6,29.83,ENE,68,0.0,0.0,90,0.00,,,0.00,WUHU216HW,2013-08-07 12:35:00,
2013-08-07 08:40:00,72.8,70.1,29.83,ENE,68,0.0,0.0,91,0.00,,,0.00,WUHU216HW,2013-08-07 12:40:00,
2013-08-07 08:45:00,73.0,70.2,29.83,ENE,68,0.0,0.0,91,0.00,,,0.00,WUHU216HW,2013-08-07 12:45:00,
2013-08-07 08:50:00,73.0,70.2,29.83,ENE,68,0.0,0.0,91,0.00,,,0.00,WUHU216HW,2013-08-07 12:50:00,
2013-08-07 08:55:00,73.2,70.4,29.84,ENE,68,0.0,0.0,91,0.00,,,0.00,WUHU216HW,2013-08-07 12:55:00,
2013-08-07 09:00:00,73.2,70.4,29.85,ENE,68,0.0,0.0,91,0.00,,,0.00,WUHU216HW,2013-08-07 13:00:00,
2013-08-07 09:05:00,73.4,70.6,29.85,ENE,68,0.0,0.0,91,0.00,,,0.00,WUHU216HW,2013-08-07 13:05:00,
2013-08-07 09:10:00,73.5,70.8,29.85,ENE,68,0.0,0.0,91,0.00,,,0.00,WUHU216HW,2013-08-07 13:10:00,
2013-08-07 09:15:00,73.7,71.0,29.85,ENE,68,0.0,0.0,91,0.00,,,0.00,WUHU216HW,2013-08-07 13:15:00,
2013-08-07 09:20:00,73.7,71.0,29.85,SE,135,0.0,0.0,91,0.00,,,0.00,WUHU216HW,2013-08-07 13:20:00,
2013-08-07 09:25:00,73.9,71.1,29.85,SE,135,0.0,0.0,91,0.00,,,0.00,WUHU216HW,2013-08-07 13:25:00,
2013-08-07 09:30:00,74.1,71.3,29.85,ESE,113,0.0,0.0,91,0.00,,,0.00,WUHU216HW,2013-08-07 13:30:00,
2013-08-07 09:35:00,74.1,71.3,29.85,ESE,113,0.0,0.0,91,0.00,,,0.00,WUHU216HW,2013-08-07 13:35:00,
2013-08-07 09:40:00,74.1,71.3,29.85,ESE,113,0.0,0.0,91,0.00,,,0.00,WUHU216HW,2013-08-07 13:40:00,
2013-08-07 09:45:00,74.1,71.3,29.85,SE,135,0.0,0.0,91,0.00,,,0.00,WUHU216HW,2013-08-07 13:45:00,
2013-08-07 09:50:00,74.3,71.5,29.85,NW,315,0.0,0.0,91,0.00,,,0.00,WUHU216HW,2013-08-07 13:50:00,
2013-08-07 09:55:00,74.4,71.7,29.85,SE,135,0.0,2.4,91,0.00,,,0.00,WUHU216HW,2013-08-07 13:55:00,
2013-08-07 10:00:00,74.4,71.7,29.84,SE,135,0.0,2.4,91,0.00,,,0.00,WUHU216HW,2013-08-07 14:00:00,
2013-08-07 10:05:00,74.8,72.0,29.84,NNW,338,0.0,0.6,91,0.00,,,0.00,WUHU216HW,2013-08-07 14:05:00,
2013-08-07 10:10:00,75.0,72.2,29.85,SE,135,0.0,0.6,91,0.00,,,0.00,WUHU216HW,2013-08-07 14:10:00,
2013-08-07 10:15:00,75.0,72.2,29.85,SE,135,0.0,0.0,91,0.00,,,0.00,WUHU216HW,2013-08-07 14:15:00,
2013-08-07 10:20:00,75.0,71.9,29.85,SE,135,0.0,0.0,90,0.00,,,0.00,WUHU216HW,2013-08-07 14:20:00,
2013-08-07 10:25:00,75.0,71.9,29.85,SE,135,0.0,0.0,90,0.00,,,0.00,WUHU216HW,2013-08-07 14:25:00,
2013-08-07 10:30:00,75.0,71.9,29.85,SE,135,0.0,0.0,90,0.00,,,0.00,WUHU216HW,2013-08-07 14:30:00,
2013-08-07 10:35:00,75.0,71.9,29.85,ESE,113,0.0,0.0,90,0.00,,,0.00,WUHU216HW,2013-08-07 14:35:00,
2013-08-07 10:40:00,75.0,71.9,29.85,ESE,113,0.0,0.0,90,0.00,,,0.00,WUHU216HW,2013-08-07 14:40:00,
2013-08-07 10:45:00,75.0,71.9,29.85,NNE,23,0.0,0.6,90,0.00,,,0.00,WUHU216HW,2013-08-07 14:45:00,
2013-08-07 10:50:00,75.0,71.9,29.85,NNE,23,0.6,0.6,90,0.00,,,0.00,WUHU216HW,2013-08-07 14:50:00,
2013-08-07 10:55:00,75.0,71.6,29.85,NNE,23,0.0,0.6,89,0.00,,,0.00,WUHU216HW,2013-08-07 14:55:00,
2013-08-07 11:00:00,75.2,72.1,29.85,ESE,113,0.0,0.6,90,0.00,,,0.00,WUHU216HW,2013-08-07 15:00:00,
2013-08-07 11:05:00,75.3,71.9,29.85,NE,45,0.0,0.0,89,0.00,,,0.00,WUHU216HW,2013-08-07 15:05:00,
2013-08-07 11:10:00,75.5,72.5,29.85,NE,45,0.0,0.0,90,0.00,,,0.00,WUHU216HW,2013-08-07 15:10:00,
2013-08-07 11:15:00,75.5,72.5,29.85,North,0,0.0,0.0,90,0.00,,,0.00,WUHU216HW,2013-08-07 15:15:00,
2013-08-07 11:20:00,75.7,72.6,29.85,North,0,0.0,0.0,90,0.00,,,0.00,WUHU216HW,2013-08-07 15:20:00,
2013-08-07 11:25:00,75.7,72.3,29.84,North,0,0.0,0.0,89,0.00,,,0.00,WUHU216HW,2013-08-07 15:25:00,
2013-08-07 11:30:00,75.7,72.3,29.84,North,0,0.0,0.0,89,0.00,,,0.00,WUHU216HW,2013-08-07 15:30:00,
2013-08-07 11:35:00,75.9,72.5,29.84,SW,225,0.0,0.0,89,0.00,,,0.00,WUHU216HW,2013-08-07 15:35:00,
2013-08-07 11:40:00,75.9,72.5,29.84,SSE,158,2.9,2.9,89,0.00,,,0.00,WUHU216HW,2013-08-07 15:40:00,
2013-08-07 11:45:00,75.9,72.5,29.84,ESE,113,2.0,2.9,89,0.00,,,0.00,WUHU216HW,2013-08-07 15:45:00,
2013-08-07 11:50:00,76.2,72.8,29.84,WSW,248,0.0,2.0,89,0.00,,,0.00,WUHU216HW,2013-08-07 15:50:00,
2013-08-07 11:55:00,76.6,73.2,29.84,SSE,158,0.0,0.0,89,0.00,,,0.00,WUHU216HW,2013-08-07 15:55:00,
2013-08-07 12:00:00,76.6,72.8,29.84,SE,135,2.4,2.4,88,0.00,,,0.00,WUHU216HW,2013-08-07 16:00:00,
2013-08-07 12:05:00,76.8,73.0,29.84,SE,135,0.0,2.4,88,0.00,,,0.00,WUHU216HW,2013-08-07 16:05:00,
2013-08-07 12:10:00,76.8,73.0,29.84,SE,135,0.0,3.3,88,0.00,,,0.00,WUHU216HW,2013-08-07 16:10:00,
2013-08-07 12:15:00,77.0,72.8,29.84,SE,135,2.9,3.3,87,0.00,,,0.00,WUHU216HW,2013-08-07 16:15:00,
2013-08-07 12:20:00,77.1,73.0,29.84,SE,135,0.8,2.9,87,0.00,,,0.00,WUHU216HW,2013-08-07 16:20:00,
2013-08-07 12:25:00,77.3,73.2,29.84,ESE,113,0.0,2.0,87,0.00,,,0.00,WUHU216HW,2013-08-07 16:25:00,
2013-08-07 12:30:00,77.5,73.4,29.83,East,90,4.6,4.6,87,0.00,,,0.00,WUHU216HW,2013-08-07 16:30:00,
2013-08-07 12:35:00,77.7,73.5,29.84,East,90,0.0,4.6,87,0.00,,,0.00,WUHU216HW,2013-08-07 16:35:00,
2013-08-07 12:40:00,77.9,73.4,29.84,South,180,0.0,3.1,86,0.00,,,0.00,WUHU216HW,2013-08-07 16:40:00,
2013-08-07 12:45:00,78.0,73.5,29.84,WSW,248,0.0,3.1,86,0.00,,,0.00,WUHU216HW,2013-08-07 16:45:00,
2013-08-07 12:50:00,78.2,73.7,29.84,SSE,158,4.6,4.6,86,0.00,,,0.00,WUHU216HW,2013-08-07 16:50:00,
2013-08-07 12:55:00,78.4,73.9,29.84,SE,135,0.0,4.6,86,0.00,,,0.00,WUHU216HW,2013-08-07 16:55:00,
2013-08-07 13:00:00,78.4,73.9,29.84,ESE,113,0.0,4.6,86,0.00,,,0.00,WUHU216HW,2013-08-07 17:00:00,
2013-08-07 13:05:00,78.4,73.5,29.83,NW,315,0.0,0.0,85,0.00,,,0.00,WUHU216HW,2013-08-07 17:05:00,
2013-08-07 13:10:00,78.6,73.7,29.83,NNW,338,0.0,0.0,85,0.00,,,0.00,WUHU216HW,2013-08-07 17:10:00,
2013-08-07 13:15:00,78.6,73.7,29.83,South,180,0.0,0.0,85,0.00,,,0.00,WUHU216HW,2013-08-07 17:15:00,
2013-08-07 13:20:00,78.6,73.4,29.83,South,180,0.6,1.3,84,0.00,,,0.00,WUHU216HW,2013-08-07 17:20:00,
2013-08-07 13:25:00,78.9,73.7,29.83,SSE,158,0.0,1.3,84,0.00,,,0.00,WUHU216HW,2013-08-07 17:25:00,
2013-08-07 13:30:00,78.6,73.4,29.82,SSE,158,0.0,0.6,84,0.00,,,0.00,WUHU216HW,2013-08-07 17:30:00,
2013-08-07 13:35:00,78.8,73.5,29.82,SSE,158,0.0,0.0,84,0.00,,,0.00,WUHU216HW,2013-08-07 17:35:00,
2013-08-07 13:40:00,78.9,73.7,29.82,SSE,158,0.0,0.0,84,0.00,,,0.00,WUHU216HW,2013-08-07 17:40:00,
2013-08-07 13:45:00,78.9,73.7,29.82,SSE,158,0.0,0.0,84,0.00,,,0.00,WUHU216HW,2013-08-07 17:45:00,
2013-08-07 13:50:00,79.1,73.9,29.82,ESE,113,0.4,0.4,84,0.00,,,0.00,WUHU216HW,2013-08-07 17:50:00,
2013-08-07 13:56:00,79.1,73.9,29.83,ESE,113,0.0,0.4,84,0.00,,,0.00,WUHU216HW,2013-08-07 17:56:00,
2013-08-07 14:01:00,79.1,73.9,29.82,ESE,113,0.0,0.4,84,0.00,,,0.00,WUHU216HW,2013-08-07 18:01:00,
2013-08-07 14:06:00,79.1,73.9,29.82,ESE,113,0.0,0.0,84,0.00,,,0.00,WUHU216HW,2013-08-07 18:06:00,
2013-08-07 14:11:00,79.3,74.0,29.83,ESE,113,0.0,0.0,84,0.00,,,0.00,WUHU216HW,2013-08-07 18:11:00,
2013-08-07 14:16:00,79.3,74.0,29.82,South,180,0.0,1.7,84,0.00,,,0.00,WUHU216HW,2013-08-07 18:16:00,
2013-08-07 14:21:00,79.3,74.0,29.83,South,180,3.8,3.8,84,0.00,,,0.00,WUHU216HW,2013-08-07 18:21:00,
2013-08-07 14:26:00,79.3,74.0,29.82,SE,135,0.0,4.4,84,0.00,,,0.00,WUHU216HW,2013-08-07 18:26:00,
2013-08-07 14:31:00,79.3,74.0,29.82,SE,135,4.0,4.4,84,0.00,,,0.00,WUHU216HW,2013-08-07 18:31:00,
2013-08-07 14:36:00,79.7,74.4,29.82,SSW,203,3.1,4.0,84,0.00,,,0.00,WUHU216HW,2013-08-07 18:36:00,
2013-08-07 14:41:00,79.8,74.2,29.82,East,90,0.0,3.1,83,0.00,,,0.00,WUHU216HW,2013-08-07 18:41:00,
2013-08-07 14:46:00,79.8,74.2,29.81,SE,135,0.0,3.3,83,0.00,,,0.00,WUHU216HW,2013-08-07 18:46:00,
2013-08-07 14:51:00,80.0,74.4,29.82,ESE,113,0.0,3.3,83,0.00,,,0.00,WUHU216HW,2013-08-07 18:51:00,
2013-08-07 14:56:00,80.0,74.4,29.81,SE,135,0.0,0.0,83,0.00,,,0.00,WUHU216HW,2013-08-07 18:56:00,
2013-08-07 15:01:00,80.0,74.4,29.82,ENE,68,0.0,0.0,83,0.00,,,0.00,WUHU216HW,2013-08-07 19:01:00,
2013-08-07 15:06:00,80.2,74.6,29.81,East,90,0.0,0.0,83,0.00,,,0.00,WUHU216HW,2013-08-07 19:06:00,
2013-08-07 15:11:00,80.4,74.4,29.82,SE,135,0.0,0.0,82,0.00,,,0.00,WUHU216HW,2013-08-07 19:11:00,
2013-08-07 15:16:00,80.2,74.2,29.81,SW,225,0.0,0.0,82,0.00,,,0.00,WUHU216HW,2013-08-07 19:16:00,
2013-08-07 15:21:00,80.2,74.2,29.81,WSW,248,0.0,0.0,82,0.00,,,0.00,WUHU216HW,2013-08-07 19:21:00,
2013-08-07 15:26:00,80.4,74.4,29.81,SE,135,3.1,3.1,82,0.00,,,0.00,WUHU216HW,2013-08-07 19:26:00,
2013-08-07 15:31:00,80.2,74.2,29.81,ESE,113,0.0,3.1,82,0.00,,,0.00,WUHU216HW,2013-08-07 19:31:00,
2013-08-07 15:36:00,80.2,74.2,29.80,SSE,158,0.0,0.0,82,0.00,,,0.00,WUHU216HW,2013-08-07 19:36:00,
2013-08-07 15:41:00,80.4,74.7,29.80,SSE,158,2.6,2.6,83,0.00,,,0.00,WUHU216HW,2013-08-07 19:41:00,
2013-08-07 15:46:00,80.6,74.8,29.80,SE,135,0.0,2.6,82,0.00,,,0.00,WUHU216HW,2013-08-07 19:46:00,
2013-08-07 15:51:00,80.9,74.6,29.80,SE,135,0.0,0.0,81,0.00,,,0.00,WUHU216HW,2013-08-07 19:51:00,
2013-08-07 15:56:00,80.9,74.3,29.80,SE,135,0.0,4.9,80,0.00,,,0.00,WUHU216HW,2013-08-07 19:56:00,
2013-08-07 16:01:00,80.9,74.3,29.80,SSE,158,0.0,4.9,80,0.00,,,0.00,WUHU216HW,2013-08-07 20:01:00,
2013-08-07 16:06:00,81.1,74.4,29.80,NNE,23,0.0,0.0,80,0.00,,,0.00,WUHU216HW,2013-08-07 20:06:00,
2013-08-07 16:11:00,81.3,74.6,29.80,NNE,23,0.0,0.0,80,0.00,,,0.00,WUHU216HW,2013-08-07 20:11:00,
2013-08-07 16:16:00,81.3,74.2,29.80,West,270,0.0,0.0,79,0.00,,,0.00,WUHU216HW,2013-08-07 20:16:00,
2013-08-07 16:21:00,81.5,74.0,29.80,WNW,293,0.0,0.0,78,0.00,,,0.00,WUHU216HW,2013-08-07 20:21:00,
2013-08-07 16:26:00,81.6,74.1,29.79,SSW,203,0.0,0.0,78,0.00,,,0.00,WUHU216HW,2013-08-07 20:26:00,
2013-08-07 16:31:00,81.6,74.1,29.79,East,90,0.0,0.0,78,0.00,,,0.00,WUHU216HW,2013-08-07 20:31:00,
2013-08-07 16:36:00,81.5,74.4,29.79,East,90,0.0,0.0,79,0.00,,,0.00,WUHU216HW,2013-08-07 20:36:00,
2013-08-07 16:41:00,81.5,74.4,29.79,East,90,0.0,0.0,79,0.00,,,0.00,WUHU216HW,2013-08-07 20:41:00,
2013-08-07 16:46:00,81.6,74.6,29.79,SE,135,0.0,0.0,79,0.00,,,0.00,WUHU216HW,2013-08-07 20:46:00,
2013-08-07 16:51:00,81.5,74.4,29.80,SE,135,0.0,0.0,79,0.00,,,0.00,WUHU216HW,2013-08-07 20:51:00,
2013-08-07 16:56:00,81.5,74.4,29.80,SE,135,0.0,0.0,79,0.00,,,0.00,WUHU216HW,2013-08-07 20:56:00,
2013-08-07 17:01:00,81.5,74.8,29.80,SE,135,0.0,0.0,80,0.00,,,0.00,WUHU216HW,2013-08-07 21:01:00,
2013-08-07 17:06:00,81.5,74.8,29.80,ESE,113,0.0,0.0,80,0.00,,,0.00,WUHU216HW,2013-08-07 21:06:00,
2013-08-07 17:16:00,81.5,74.8,29.80,SW,225,0.0,0.0,80,0.00,,,0.00,WUHU216HW,2013-08-07 21:16:00,
2013-08-07 17:21:00,81.6,74.6,29.80,SW,225,0.0,0.0,79,0.00,,,0.00,WUHU216HW,2013-08-07 21:21:00,
2013-08-07 17:26:00,81.6,75.0,29.79,SW,225,0.0,0.0,80,0.00,,,0.00,WUHU216HW,2013-08-07 21:26:00,
2013-08-07 17:31:00,81.6,74.6,29.79,SE,135,0.0,0.0,79,0.00,,,0.00,WUHU216HW,2013-08-07 21:31:00,
2013-08-07 17:36:00,81.6,74.6,29.79,NE,45,0.0,0.0,79,0.00,,,0.00,WUHU216HW,2013-08-07 21:36:00,
2013-08-07 17:41:00,81.6,74.1,29.79,SE,135,0.0,0.0,78,0.00,,,0.00,WUHU216HW,2013-08-07 21:41:00,
2013-08-07 17:46:00,81.8,74.3,29.79,SW,225,0.0,0.0,78,0.00,,,0.00,WUHU216HW,2013-08-07 21:46:00,
2013-08-07 17:51:00,81.6,74.1,29.79,SW,225,0.0,0.0,78,0.00,,,0.00,WUHU216HW,2013-08-07 21:51:00,
2013-08-07 17:56:00,81.6,74.1,29.79,SW,225,0.0,0.0,78,0.00,,,0.00,WUHU216HW,2013-08-07 21:56:00,
2013-08-07 18:01:00,81.6,74.1,29.79,NNW,338,0.0,0.0,78,0.00,,,0.00,WUHU216HW,2013-08-07 22:01:00,
2013-08-07 18:11:00,81.6,74.1,29.79,West,270,0.0,0.0,78,0.00,,,0.00,WUHU216HW,2013-08-07 22:11:00,
2013-08-07 18:16:00,81.5,74.4,29.79,North,0,0.0,0.0,79,0.00,,,0.00,WUHU216HW,2013-08-07 22:16:00,
2013-08-07 18:21:00,81.6,74.6,29.79,NNW,338,4.0,4.0,79,0.00,,,0.00,WUHU216HW,2013-08-07 22:21:00,
2013-08-07 18:26:00,81.6,74.6,29.79,ENE,68,0.0,4.0,79,0.00,,,0.00,WUHU216HW,2013-08-07 22:26:00,
2013-08-07 18:31:00,81.6,74.6,29.79,SE,135,0.0,4.0,79,0.00,,,0.00,WUHU216HW,2013-08-07 22:31:00,
2013-08-07 18:36:00,81.5,74.0,29.79,SE,135,0.0,0.0,78,0.00,,,0.00,WUHU216HW,2013-08-07 22:36:00,
2013-08-07 18:41:00,81.5,74.0,29.79,SE,135,0.0,0.0,78,0.00,,,0.00,WUHU216HW,2013-08-07 22:41:00,
2013-08-07 18:46:00,81.1,73.8,29.79,SSE,158,0.0,0.0,78,0.00,,,0.00,WUHU216HW,2013-08-07 22:46:00,
2013-08-07 18:51:00,81.3,73.8,29.79,SSW,203,0.0,0.0,78,0.00,,,0.00,WUHU216HW,2013-08-07 22:51:00,
2013-08-07 18:56:00,81.1,73.6,29.79,SSW,203,0.0,0.0,78,0.00,,,0.00,WUHU216HW,2013-08-07 22:56:00,
2013-08-07 19:01:00,81.1,74.0,29.79,WNW,293,0.0,0.0,79,0.00,,,0.00,WUHU216HW,2013-08-07 23:01:00,
2013-08-07 19:06:00,81.1,74.0,29.79,WNW,293,0.0,0.0,79,0.00,,,0.00,WUHU216HW,2013-08-07 23:06:00,
2013-08-07 19:11:00,81.1,74.0,29.79,West,270,0.0,0.0,79,0.00,,,0.00,WUHU216HW,2013-08-07 23:11:00,
2013-08-07 19:16:00,81.1,74.0,29.79,West,270,0.0,0.0,79,0.00,,,0.00,WUHU216HW,2013-08-07 23:16:00,
2013-08-07 19:21:00,81.1,74.4,29.79,West,270,0.0,0.0,80,0.00,,,0.00,WUHU216HW,2013-08-07 23:21:00,
2013-08-07 19:26:00,81.1,74.4,29.79,West,270,0.0,0.0,80,0.00,,,0.00,WUHU216HW,2013-08-07 23:26:00,
2013-08-07 19:31:00,80.9,74.3,29.79,West,270,0.0,0.0,80,0.00,,,0.00,WUHU216HW,2013-08-07 23:31:00,
2013-08-07 19:36:00,80.9,74.3,29.79,West,270,0.0,0.0,80,0.00,,,0.00,WUHU216HW,2013-08-07 23:36:00,
2013-08-07 19:41:00,80.7,74.1,29.79,West,270,0.0,0.0,80,0.00,,,0.00,WUHU216HW,2013-08-07 23:41:00,
2013-08-07 19:46:00,80.7,74.1,29.79,West,270,0.0,0.0,80,0.00,,,0.00,WUHU216HW,2013-08-07 23:46:00,
2013-08-07 19:51:00,80.7,74.1,29.79,West,270,0.0,0.0,80,0.00,,,0.00,WUHU216HW,2013-08-07 23:51:00,
2013-08-07 19:56:00,80.7,74.1,29.79,West,270,0.0,0.0,80,0.00,,,0.00,WUHU216HW,2013-08-07 23:56:00,
2013-08-07 20:01:00,80.4,74.1,29.79,West,270,0.0,0.0,81,0.00,,,0.00,WUHU216HW,2013-08-08 00:01:00,
2013-08-07 20:06:00,80.4,74.1,29.79,West,270,0.0,0.0,81,0.00,,,0.00,WUHU216HW,2013-08-08 00:06:00,
2013-08-07 20:11:00,80.2,73.9,29.79,West,270,0.0,0.0,81,0.00,,,0.00,WUHU216HW,2013-08-08 00:11:00,
2013-08-07 20:16:00,79.8,73.5,29.79,West,270,0.0,0.0,81,0.00,,,0.00,WUHU216HW,2013-08-08 00:16:00,
2013-08-07 20:21:00,79.8,73.9,29.79,West,270,0.0,0.0,82,0.00,,,0.00,WUHU216HW,2013-08-08 00:21:00,
2013-08-07 20:26:00,79.5,73.5,29.79,West,270,0.0,0.0,82,0.00,,,0.00,WUHU216HW,2013-08-08 00:26:00,
2013-08-07 20:31:00,79.3,73.3,29.79,West,270,0.0,0.0,82,0.00,,,0.00,WUHU216HW,2013-08-08 00:31:00,
2013-08-07 20:36:00,79.3,73.3,29.80,West,270,0.0,0.0,82,0.00,,,0.00,WUHU216HW,2013-08-08 00:36:00,
2013-08-07 20:41:00,79.1,73.2,29.80,West,270,0.0,0.0,82,0.00,,,0.00,WUHU216HW,2013-08-08 00:41:00,
2013-08-07 20:46:00,78.9,73.0,29.80,West,270,0.0,0.0,82,0.00,,,0.00,WUHU216HW,2013-08-08 00:46:00,
2013-08-07 20:51:00,78.9,73.0,29.80,West,270,0.0,0.0,82,0.00,,,0.00,WUHU216HW,2013-08-08 00:51:00,
2013-08-07 20:56:00,78.9,73.3,29.80,West,270,0.0,0.0,83,0.00,,,0.00,WUHU216HW,2013-08-08 00:56:00,
2013-08-07 21:01:00,78.8,73.2,29.80,West,270,0.0,0.0,83,0.00,,,0.00,WUHU216HW,2013-08-08 01:01:00,
2013-08-07 21:06:00,78.6,73.0,29.80,West,270,0.0,0.0,83,0.00,,,0.00,WUHU216HW,2013-08-08 01:06:00,
2013-08-07 21:11:00,78.6,73.0,29.81,West,270,0.0,0.0,83,0.00,,,0.00,WUHU216HW,2013-08-08 01:11:00,
2013-08-07 21:16:00,78.6,73.0,29.81,West,270,0.0,0.0,83,0.00,,,0.00,WUHU216HW,2013-08-08 01:16:00,
2013-08-07 21:21:00,78.6,73.0,29.82,West,270,0.0,0.0,83,0.00,,,0.00,WUHU216HW,2013-08-08 01:21:00,
2013-08-07 21:26:00,78.6,73.4,29.81,West,270,0.0,0.0,84,0.00,,,0.00,WUHU216HW,2013-08-08 01:26:00,
2013-08-07 21:31:00,78.6,73.4,29.81,West,270,0.0,0.0,84,0.00,,,0.00,WUHU216HW,2013-08-08 01:31:00,
2013-08-07 21:36:00,78.4,72.8,29.81,West,270,0.0,0.0,83,0.00,,,0.00,WUHU216HW,2013-08-08 01:36:00,
2013-08-07 21:41:00,78.0,72.5,29.82,West,270,0.0,0.0,83,0.00,,,0.00,WUHU216HW,2013-08-08 01:41:00,
2013-08-07 21:46:00,78.0,72.8,29.82,West,270,0.0,0.0,84,0.00,,,0.00,WUHU216HW,2013-08-08 01:46:00,
2013-08-07 21:51:00,78.0,72.8,29.82,West,270,0.0,0.0,84,0.00,,,0.00,WUHU216HW,2013-08-08 01:51:00,
2013-08-07 21:56:00,77.9,72.6,29.82,West,270,0.0,0.0,84,0.00,,,0.00,WUHU216HW,2013-08-08 01:56:00,
2013-08-07 22:01:00,77.7,72.5,29.82,West,270,0.0,0.0,84,0.00,,,0.00,WUHU216HW,2013-08-08 02:01:00,
2013-08-07 22:06:00,77.7,72.5,29.82,West,270,0.0,0.0,84,0.00,,,0.00,WUHU216HW,2013-08-08 02:06:00,
2013-08-07 22:11:00,77.5,72.6,29.83,West,270,0.0,0.0,85,0.00,,,0.00,WUHU216HW,2013-08-08 02:11:00,
2013-08-07 22:16:00,77.5,72.6,29.83,West,270,0.0,0.0,85,0.00,,,0.00,WUHU216HW,2013-08-08 02:16:00,
2013-08-07 22:21:00,77.5,72.6,29.83,West,270,0.0,0.0,85,0.00,,,0.00,WUHU216HW,2013-08-08 02:21:00,
2013-08-07 22:26:00,77.3,72.5,29.83,West,270,0.0,0.0,85,0.00,,,0.00,WUHU216HW,2013-08-08 02:26:00,
2013-08-07 22:31:00,77.3,72.5,29.83,West,270,0.0,0.0,85,0.00,,,0.00,WUHU216HW,2013-08-08 02:31:00,
2013-08-07 22:36:00,77.1,72.3,29.83,West,270,0.0,0.0,85,0.00,,,0.00,WUHU216HW,2013-08-08 02:36:00,
2013-08-07 22:41:00,77.1,72.3,29.83,West,270,0.0,0.0,85,0.00,,,0.00,WUHU216HW,2013-08-08 02:41:00,
2013-08-07 22:46:00,77.1,72.3,29.84,West,270,0.0,0.0,85,0.00,,,0.00,WUHU216HW,2013-08-08 02:46:00,
2013-08-07 22:51:00,77.1,72.3,29.84,West,270,0.0,0.0,85,0.00,,,0.00,WUHU216HW,2013-08-08 02:51:00,
2013-08-07 22:56:00,77.1,72.3,29.84,West,270,0.0,0.0,85,0.00,,,0.00,WUHU216HW,2013-08-08 02:56:00,
2013-08-07 23:01:00,77.0,72.1,29.84,West,270,0.0,0.0,85,0.00,,,0.00,WUHU216HW,2013-08-08 03:01:00,
2013-08-07 23:06:00,77.0,72.1,29.84,West,270,0.0,0.0,85,0.00,,,0.00,WUHU216HW,2013-08-08 03:06:00,
2013-08-07 23:11:00,76.8,71.9,29.84,West,270,0.0,0.0,85,0.00,,,0.00,WUHU216HW,2013-08-08 03:11:00,
2013-08-07 23:16:00,76.8,72.3,29.84,West,270,0.0,0.0,86,0.00,,,0.00,WUHU216HW,2013-08-08 03:16:00,
2013-08-07 23:21:00,76.8,72.3,29.84,West,270,0.0,0.0,86,0.00,,,0.00,WUHU216HW,2013-08-08 03:21:00,
2013-08-07 23:26:00,76.6,72.1,29.84,West,270,0.0,0.0,86,0.00,,,0.00,WUHU216HW,2013-08-08 03:26:00,
2013-08-07 23:31:00,76.6,72.1,29.84,West,270,0.0,0.0,86,0.00,,,0.00,WUHU216HW,2013-08-08 03:31:00,
2013-08-07 23:36:00,76.4,71.9,29.84,West,270,0.0,0.0,86,0.00,,,0.00,WUHU216HW,2013-08-08 03:36:00,
2013-08-07 23:41:00,76.4,71.9,29.84,West,270,0.0,0.0,86,0.00,,,0.00,WUHU216HW,2013-08-08 03:41:00,
2013-08-07 23:46:00,76.2,71.7,29.84,West,270,0.0,0.0,86,0.00,,,0.00,WUHU216HW,2013-08-08 03:46:00,
2013-08-07 23:51:00,76.2,71.7,29.84,West,270,0.0,0.0,86,0.00,,,0.00,WUHU216HW,2013-08-08 03:51:00,
2013-08-07 23:56:00,76.1,71.6,29.84,West,270,0.0,0.0,86,0.00,,,0.00,WUHU216HW,2013-08-08 03:56:00,